Hlavní strana
METAR-TAF:

METAR-TAF

Letiště :

San José, Kostarika

zeměpisná šířka: 10-00N, zeměpisná délka: 084-13W, výška: 920 m

Aktuální stav počasí

Zpráva byla vytvořena před 57 minutami, v 10:00 UTC
Východoseverovýchodní vítr 6 kt
Teplota 18°C
Vlhkost vzduchu 83%
Tlak 1016 hPa
Viditelnost 10 km a více
Žádná oblačnost pod 1500 m, nevyskytují se cumulonimby.

METAR: MROC 241000Z 07006KT CAVOK 18/15 A3000 NOSIG

Čas: 04:57 (10:57 UTC)

Předpověď počasí

Zpráva byla vytvořena před 5 hodinami a 57 minutami, v 05:00 UTC
Předpověď platná od 24 v 06 UTC do 25 v 06 UTC
Východojihovýchodní vítr 8 kt
Viditelnost 10 km a více
Skoro jasno ve výšce 4000 ft
Dočasný
od 24 v 06 UTC do 24 v 10 UTC
vítr z různých směrů 2 kt
Dočasný
od 24 v 19 UTC do 24 v 23 UTC
Západojihozápadní vítr 8 kt
Skoro jasno ve výšce 3000 ft, Vertikální cumulus.

TAF: MROC 240500Z 2406/2506 11008KT 9999 FEW040 TX30/2419Z TN19/2410Z TEMPO 2406/2410 VRB02KT TEMPO 2419/2423 24008KT FEW030TCU

Stav a předpovědi počasí z více než 4 000 letišť (zprávy METAR a TAF).

Červené a žluté tečky na mapě představují dostupné meteorologické stanice.

Když kurzor umístíte na tečku, zobrazí se název stanice.

Pak kliknutím zobrazíte stav a předpověď počasí.

Chcete-li změnit mapu, kliknutím na zelené tlačítko se znaménkem +mapu přiblížíte, kliknutím na zelené tlačítko se znaménkem – mapu oddálíte a kliknutím na zelené šipky přejdete na sousední mapy.


METAR-TAF: